Springs Airfield

Airport
ICAO code: 
FASI
Summary
ICAO Region: 
AFI
Territory: 
Location: 
, Gauteng
Serving: 
Springs
Elevation: 
5340 ft
Coordinates: 
Aerial View: 
26° 14' 54.28" S, 28° 23' 51.029" E
Metar
Observation
FASI 040000Z AUTO 17004KT //// // ////// 16/16 Q1024
Station
Springs
Date/Time
2021-12-04 00:00:00
Wind direction
170°
Wind speed
04 kts
Lowest cloud amount
n/a
Temperature
16°C
Dew point
16°C
Humidity
100%
QNH
1024 hPa
Weather condition
n/a

Runways

Designator Length Width Surface Rops
4/22 0 0 ASP No/No
14/32 554 21 GRE No/No
3/21 1600 18 ASP No/No
Airport map: 
Aerial View: 

SKYbrary Partners:

Safety knowledge contributed by: